sensor_id;sensor_type;location;lat;lon;timestamp;pressure;altitude;pressure_sealevel;temperature;humidity
37856;BME280;23694;43.274;26.924;2023-03-14T00:02:08;99257.09;;;3.46;53.54
37856;BME280;23694;43.274;26.924;2023-03-14T00:04:35;99249.16;;;3.50;53.17
37856;BME280;23694;43.274;26.924;2023-03-14T00:07:02;99244.50;;;3.60;52.61
37856;BME280;23694;43.274;26.924;2023-03-14T00:09:28;99234.47;;;3.51;52.93
37856;BME280;23694;43.274;26.924;2023-03-14T00:11:56;99247.31;;;3.54;53.43
37856;BME280;23694;43.274;26.924;2023-03-14T00:14:22;99243.94;;;3.27;54.17
37856;BME280;23694;43.274;26.924;2023-03-14T00:16:48;99240.09;;;3.12;55.09
37856;BME280;23694;43.274;26.924;2023-03-14T00:19:14;99252.59;;;3.25;54.84
37856;BME280;23694;43.274;26.924;2023-03-14T00:21:41;99252.81;;;3.18;54.71
37856;BME280;23694;43.274;26.924;2023-03-14T00:24:08;99252.63;;;2.98;55.57
37856;BME280;23694;43.274;26.924;2023-03-14T00:26:34;99245.13;;;2.91;55.51
37856;BME280;23694;43.274;26.924;2023-03-14T00:29:00;99233.72;;;2.96;55.58
37856;BME280;23694;43.274;26.924;2023-03-14T00:31:26;99228.44;;;2.99;55.72
37856;BME280;23694;43.274;26.924;2023-03-14T00:33:53;99232.94;;;2.94;55.58
37856;BME280;23694;43.274;26.924;2023-03-14T00:36:19;99234.41;;;3.01;55.71
37856;BME280;23694;43.274;26.924;2023-03-14T00:38:48;99231.53;;;3.10;55.37
37856;BME280;23694;43.274;26.924;2023-03-14T00:41:20;99243.63;;;3.10;55.34
37856;BME280;23694;43.274;26.924;2023-03-14T00:43:48;99236.75;;;3.09;55.60
37856;BME280;23694;43.274;26.924;2023-03-14T00:46:15;99237.69;;;3.06;55.62
37856;BME280;23694;43.274;26.924;2023-03-14T00:48:41;99229.03;;;3.07;55.33
37856;BME280;23694;43.274;26.924;2023-03-14T00:51:08;99225.66;;;3.05;55.59
37856;BME280;23694;43.274;26.924;2023-03-14T00:53:35;99227.34;;;3.06;55.34
37856;BME280;23694;43.274;26.924;2023-03-14T00:56:03;99228.28;;;3.04;55.35
37856;BME280;23694;43.274;26.924;2023-03-14T00:58:30;99227.13;;;3.12;54.98
37856;BME280;23694;43.274;26.924;2023-03-14T01:00:56;99232.25;;;3.14;54.93
37856;BME280;23694;43.274;26.924;2023-03-14T01:03:22;99229.41;;;3.22;54.29
37856;BME280;23694;43.274;26.924;2023-03-14T01:05:50;99218.53;;;3.12;55.15
37856;BME280;23694;43.274;26.924;2023-03-14T01:08:16;99221.38;;;3.04;55.24
37856;BME280;23694;43.274;26.924;2023-03-14T01:10:42;99217.88;;;3.05;54.90
37856;BME280;23694;43.274;26.924;2023-03-14T01:13:09;99219.69;;;3.03;54.91
37856;BME280;23694;43.274;26.924;2023-03-14T01:15:37;99219.94;;;2.69;56.32
37856;BME280;23694;43.274;26.924;2023-03-14T01:18:04;99216.22;;;2.78;55.91
37856;BME280;23694;43.274;26.924;2023-03-14T01:20:32;99203.88;;;2.86;55.32
37856;BME280;23694;43.274;26.924;2023-03-14T01:22:59;99200.41;;;2.87;55.46
37856;BME280;23694;43.274;26.924;2023-03-14T01:25:25;99203.44;;;2.73;55.89
37856;BME280;23694;43.274;26.924;2023-03-14T01:27:51;99203.28;;;2.78;56.32
37856;BME280;23694;43.274;26.924;2023-03-14T01:30:17;99198.84;;;2.81;55.71
37856;BME280;23694;43.274;26.924;2023-03-14T01:32:43;99207.91;;;2.68;56.19
37856;BME280;23694;43.274;26.924;2023-03-14T01:35:09;99202.84;;;2.65;56.43
37856;BME280;23694;43.274;26.924;2023-03-14T01:37:35;99203.69;;;2.66;56.30
37856;BME280;23694;43.274;26.924;2023-03-14T01:40:01;99204.59;;;2.65;56.23
37856;BME280;23694;43.274;26.924;2023-03-14T01:42:28;99204.47;;;2.68;56.57
37856;BME280;23694;43.274;26.924;2023-03-14T01:44:57;99204.13;;;2.78;55.99
37856;BME280;23694;43.274;26.924;2023-03-14T01:47:24;99196.41;;;2.77;56.20
37856;BME280;23694;43.274;26.924;2023-03-14T01:49:56;99197.22;;;2.79;56.18
37856;BME280;23694;43.274;26.924;2023-03-14T01:52:23;99197.75;;;2.89;55.98
37856;BME280;23694;43.274;26.924;2023-03-14T01:54:54;99199.56;;;2.86;55.93
37856;BME280;23694;43.274;26.924;2023-03-14T01:57:28;99199.75;;;2.80;55.88
37856;BME280;23694;43.274;26.924;2023-03-14T02:00:07;99200.31;;;2.64;56.12
37856;BME280;23694;43.274;26.924;2023-03-14T02:02:42;99209.66;;;2.68;56.14
37856;BME280;23694;43.274;26.924;2023-03-14T02:05:10;99203.00;;;2.59;56.04
37856;BME280;23694;43.274;26.924;2023-03-14T02:07:47;99197.63;;;2.67;55.80
37856;BME280;23694;43.274;26.924;2023-03-14T02:10:17;99202.69;;;2.70;55.85
37856;BME280;23694;43.274;26.924;2023-03-14T02:12:47;99205.13;;;2.74;55.50
37856;BME280;23694;43.274;26.924;2023-03-14T02:15:13;99201.84;;;2.69;55.40
37856;BME280;23694;43.274;26.924;2023-03-14T02:17:41;99199.16;;;2.72;55.16
37856;BME280;23694;43.274;26.924;2023-03-14T02:23:02;99208.31;;;2.54;55.41
37856;BME280;23694;43.274;26.924;2023-03-14T02:28:20;99204.75;;;2.59;56.08
37856;BME280;23694;43.274;26.924;2023-03-14T02:30:46;99204.69;;;2.62;55.61
37856;BME280;23694;43.274;26.924;2023-03-14T02:33:18;99205.59;;;2.59;55.59
37856;BME280;23694;43.274;26.924;2023-03-14T02:35:50;99198.13;;;2.50;55.65
37856;BME280;23694;43.274;26.924;2023-03-14T02:41:02;99188.94;;;2.41;55.63
37856;BME280;23694;43.274;26.924;2023-03-14T02:43:28;99179.81;;;2.30;55.58
37856;BME280;23694;43.274;26.924;2023-03-14T02:45:54;99171.84;;;2.09;56.75
37856;BME280;23694;43.274;26.924;2023-03-14T02:48:31;99176.97;;;2.11;57.19
37856;BME280;23694;43.274;26.924;2023-03-14T02:51:00;99177.75;;;2.13;57.14
37856;BME280;23694;43.274;26.924;2023-03-14T02:53:30;99181.69;;;2.25;57.08
37856;BME280;23694;43.274;26.924;2023-03-14T02:55:57;99173.00;;;2.27;56.76
37856;BME280;23694;43.274;26.924;2023-03-14T02:58:23;99168.59;;;2.31;56.34
37856;BME280;23694;43.274;26.924;2023-03-14T03:00:50;99170.47;;;2.26;55.95
37856;BME280;23694;43.274;26.924;2023-03-14T03:03:16;99167.28;;;2.17;56.20
37856;BME280;23694;43.274;26.924;2023-03-14T03:05:42;99170.06;;;2.11;56.15
37856;BME280;23694;43.274;26.924;2023-03-14T03:08:10;99167.75;;;2.02;56.79
37856;BME280;23694;43.274;26.924;2023-03-14T03:10:36;99173.78;;;1.72;57.54
37856;BME280;23694;43.274;26.924;2023-03-14T03:13:02;99167.34;;;1.57;59.00
37856;BME280;23694;43.274;26.924;2023-03-14T03:15:28;99158.56;;;1.63;58.14
37856;BME280;23694;43.274;26.924;2023-03-14T03:17:54;99170.97;;;1.79;57.18
37856;BME280;23694;43.274;26.924;2023-03-14T03:20:20;99153.84;;;1.77;57.30
37856;BME280;23694;43.274;26.924;2023-03-14T03:22:46;99165.69;;;1.84;56.77
37856;BME280;23694;43.274;26.924;2023-03-14T03:25:12;99161.28;;;1.87;56.77
37856;BME280;23694;43.274;26.924;2023-03-14T03:27:38;99161.38;;;1.84;56.75
37856;BME280;23694;43.274;26.924;2023-03-14T03:30:06;99155.63;;;1.75;57.21
37856;BME280;23694;43.274;26.924;2023-03-14T03:32:32;99151.34;;;1.74;57.06
37856;BME280;23694;43.274;26.924;2023-03-14T03:34:58;99158.88;;;1.81;56.82
37856;BME280;23694;43.274;26.924;2023-03-14T03:37:25;99163.16;;;1.82;56.87
37856;BME280;23694;43.274;26.924;2023-03-14T03:39:51;99161.53;;;1.78;56.96
37856;BME280;23694;43.274;26.924;2023-03-14T03:42:17;99162.22;;;1.55;57.94
37856;BME280;23694;43.274;26.924;2023-03-14T03:44:44;99160.59;;;1.51;58.41
37856;BME280;23694;43.274;26.924;2023-03-14T03:47:10;99164.84;;;1.54;58.06
37856;BME280;23694;43.274;26.924;2023-03-14T03:49:36;99163.72;;;1.63;57.82
37856;BME280;23694;43.274;26.924;2023-03-14T03:52:02;99157.63;;;1.65;57.54
37856;BME280;23694;43.274;26.924;2023-03-14T03:54:28;99161.72;;;1.72;57.44
37856;BME280;23694;43.274;26.924;2023-03-14T03:56:55;99156.44;;;1.77;57.27
37856;BME280;23694;43.274;26.924;2023-03-14T03:59:21;99153.63;;;1.84;56.65
37856;BME280;23694;43.274;26.924;2023-03-14T04:01:47;99166.25;;;1.94;56.51
37856;BME280;23694;43.274;26.924;2023-03-14T04:04:14;99163.94;;;1.84;57.06
37856;BME280;23694;43.274;26.924;2023-03-14T04:06:40;99166.44;;;1.87;56.95
37856;BME280;23694;43.274;26.924;2023-03-14T04:09:08;99179.00;;;1.70;58.19
37856;BME280;23694;43.274;26.924;2023-03-14T04:11:34;99174.72;;;1.69;58.01
37856;BME280;23694;43.274;26.924;2023-03-14T04:14:00;99169.50;;;1.71;58.30
37856;BME280;23694;43.274;26.924;2023-03-14T04:16:27;99169.34;;;1.77;57.85
37856;BME280;23694;43.274;26.924;2023-03-14T04:18:53;99163.47;;;1.72;57.91
37856;BME280;23694;43.274;26.924;2023-03-14T04:21:19;99165.03;;;1.77;58.06
37856;BME280;23694;43.274;26.924;2023-03-14T04:23:45;99165.16;;;1.73;58.23
37856;BME280;23694;43.274;26.924;2023-03-14T04:26:11;99164.63;;;1.62;58.94
37856;BME280;23694;43.274;26.924;2023-03-14T04:28:37;99160.16;;;1.67;59.24
37856;BME280;23694;43.274;26.924;2023-03-14T04:31:13;99173.00;;;1.70;59.50
37856;BME280;23694;43.274;26.924;2023-03-14T04:33:40;99164.59;;;1.91;59.43
37856;BME280;23694;43.274;26.924;2023-03-14T04:36:06;99158.50;;;2.49;58.28
37856;BME280;23694;43.274;26.924;2023-03-14T04:38:33;99151.72;;;3.23;55.91
37856;BME280;23694;43.274;26.924;2023-03-14T04:40:59;99151.66;;;3.49;53.64
37856;BME280;23694;43.274;26.924;2023-03-14T04:43:26;99149.44;;;3.86;52.17
37856;BME280;23694;43.274;26.924;2023-03-14T04:45:57;99158.94;;;4.74;49.77
37856;BME280;23694;43.274;26.924;2023-03-14T04:48:24;99158.00;;;5.75;47.05
37856;BME280;23694;43.274;26.924;2023-03-14T04:50:51;99141.03;;;6.78;43.90
37856;BME280;23694;43.274;26.924;2023-03-14T04:53:19;99141.16;;;7.92;41.61
37856;BME280;23694;43.274;26.924;2023-03-14T04:55:53;99142.84;;;8.86;39.19
37856;BME280;23694;43.274;26.924;2023-03-14T04:58:20;99153.81;;;9.80;37.19
37856;BME280;23694;43.274;26.924;2023-03-14T05:00:47;99147.44;;;10.54;35.94
37856;BME280;23694;43.274;26.924;2023-03-14T05:03:17;99138.34;;;11.62;33.25
37856;BME280;23694;43.274;26.924;2023-03-14T05:05:43;99133.09;;;12.61;31.41
37856;BME280;23694;43.274;26.924;2023-03-14T05:08:10;99144.47;;;13.54;29.84
37856;BME280;23694;43.274;26.924;2023-03-14T05:10:36;99142.59;;;13.78;29.74
37856;BME280;23694;43.274;26.924;2023-03-14T05:13:02;99123.50;;;14.74;28.46
37856;BME280;23694;43.274;26.924;2023-03-14T05:15:28;99134.44;;;15.64;27.99
37856;BME280;23694;43.274;26.924;2023-03-14T05:17:54;99128.13;;;16.26;27.13
37856;BME280;23694;43.274;26.924;2023-03-14T05:20:20;99128.16;;;16.45;26.86
37856;BME280;23694;43.274;26.924;2023-03-14T05:22:47;99112.44;;;16.63;26.61
37856;BME280;23694;43.274;26.924;2023-03-14T05:25:13;99118.84;;;16.79;26.14
37856;BME280;23694;43.274;26.924;2023-03-14T05:27:39;99117.59;;;17.13;26.03
37856;BME280;23694;43.274;26.924;2023-03-14T05:30:08;99119.44;;;17.02;25.78
37856;BME280;23694;43.274;26.924;2023-03-14T05:32:34;99116.91;;;17.10;25.97
37856;BME280;23694;43.274;26.924;2023-03-14T05:35:00;99110.84;;;17.37;25.47
37856;BME280;23694;43.274;26.924;2023-03-14T05:37:27;99115.13;;;17.48;25.29
37856;BME280;23694;43.274;26.924;2023-03-14T05:39:53;99109.63;;;18.06;24.87
37856;BME280;23694;43.274;26.924;2023-03-14T05:42:19;99106.22;;;18.59;24.23
37856;BME280;23694;43.274;26.924;2023-03-14T05:44:45;99117.16;;;18.74;24.03
37856;BME280;23694;43.274;26.924;2023-03-14T05:47:11;99107.78;;;18.97;23.60
37856;BME280;23694;43.274;26.924;2023-03-14T05:49:37;99109.91;;;19.19;23.33
37856;BME280;23694;43.274;26.924;2023-03-14T05:52:03;99102.88;;;19.54;22.53
37856;BME280;23694;43.274;26.924;2023-03-14T05:54:29;99113.91;;;20.01;22.62
37856;BME280;23694;43.274;26.924;2023-03-14T05:56:55;99106.19;;;19.82;22.31
37856;BME280;23694;43.274;26.924;2023-03-14T05:59:21;99120.88;;;15.78;27.47
37856;BME280;23694;43.274;26.924;2023-03-14T06:01:47;99120.81;;;16.08;27.21
37856;BME280;23694;43.274;26.924;2023-03-14T06:04:13;99117.75;;;16.82;26.54
37856;BME280;23694;43.274;26.924;2023-03-14T06:06:39;99119.31;;;17.51;26.16
37856;BME280;23694;43.274;26.924;2023-03-14T06:09:05;99099.97;;;18.95;24.25
37856;BME280;23694;43.274;26.924;2023-03-14T06:11:31;99102.50;;;19.75;23.34
37856;BME280;23694;43.274;26.924;2023-03-14T06:13:57;99100.50;;;20.85;22.06
37856;BME280;23694;43.274;26.924;2023-03-14T06:16:23;99099.25;;;21.61;21.28
37856;BME280;23694;43.274;26.924;2023-03-14T06:18:49;99088.81;;;21.11;21.07
37856;BME280;23694;43.274;26.924;2023-03-14T06:21:15;99081.41;;;20.23;22.33
37856;BME280;23694;43.274;26.924;2023-03-14T06:23:41;99085.84;;;19.65;22.80
37856;BME280;23694;43.274;26.924;2023-03-14T06:26:07;99084.72;;;18.62;23.67
37856;BME280;23694;43.274;26.924;2023-03-14T06:28:33;99098.81;;;17.62;24.98
37856;BME280;23694;43.274;26.924;2023-03-14T06:31:00;99085.22;;;15.63;27.36
37856;BME280;23694;43.274;26.924;2023-03-14T06:33:26;99098.59;;;13.12;31.16
37856;BME280;23694;43.274;26.924;2023-03-14T06:35:52;99107.00;;;10.58;36.55
37856;BME280;23694;43.274;26.924;2023-03-14T06:38:18;99109.72;;;9.17;38.86
37856;BME280;23694;43.274;26.924;2023-03-14T06:40:45;99104.91;;;7.88;41.74
37856;BME280;23694;43.274;26.924;2023-03-14T06:43:11;99103.03;;;7.08;45.08
37856;BME280;23694;43.274;26.924;2023-03-14T06:45:37;99104.75;;;6.75;46.43
37856;BME280;23694;43.274;26.924;2023-03-14T06:48:03;99115.09;;;6.23;48.93
37856;BME280;23694;43.274;26.924;2023-03-14T06:50:29;99107.34;;;5.84;50.04
37856;BME280;23694;43.274;26.924;2023-03-14T06:52:55;99115.72;;;5.71;52.11
37856;BME280;23694;43.274;26.924;2023-03-14T06:55:22;99115.63;;;5.93;51.62
37856;BME280;23694;43.274;26.924;2023-03-14T06:57:48;99114.72;;;6.30;50.69
37856;BME280;23694;43.274;26.924;2023-03-14T07:00:14;99105.41;;;6.44;49.07
37856;BME280;23694;43.274;26.924;2023-03-14T07:02:40;99107.69;;;6.50;49.11
37856;BME280;23694;43.274;26.924;2023-03-14T07:05:07;99097.56;;;6.26;48.97
37856;BME280;23694;43.274;26.924;2023-03-14T07:07:33;99110.13;;;6.18;48.64
37856;BME280;23694;43.274;26.924;2023-03-14T07:09:59;99102.53;;;6.14;49.80
37856;BME280;23694;43.274;26.924;2023-03-14T07:12:25;99096.13;;;5.83;51.13
37856;BME280;23694;43.274;26.924;2023-03-14T07:14:51;99090.38;;;6.14;50.62
37856;BME280;23694;43.274;26.924;2023-03-14T07:17:17;99101.56;;;6.33;49.31
37856;BME280;23694;43.274;26.924;2023-03-14T07:19:43;99088.00;;;6.63;48.43
37856;BME280;23694;43.274;26.924;2023-03-14T07:22:09;99078.00;;;7.06;46.87
37856;BME280;23694;43.274;26.924;2023-03-14T07:24:35;99077.84;;;6.22;48.78
37856;BME280;23694;43.274;26.924;2023-03-14T07:27:01;99081.16;;;6.43;48.78
37856;BME280;23694;43.274;26.924;2023-03-14T07:29:27;99071.84;;;7.07;47.79
37856;BME280;23694;43.274;26.924;2023-03-14T07:31:53;99073.47;;;7.09;46.87
37856;BME280;23694;43.274;26.924;2023-03-14T07:34:19;99071.28;;;6.50;49.18
37856;BME280;23694;43.274;26.924;2023-03-14T07:36:45;99064.72;;;6.60;49.23
37856;BME280;23694;43.274;26.924;2023-03-14T07:39:11;99066.75;;;7.70;48.23
37856;BME280;23694;43.274;26.924;2023-03-14T07:41:37;99064.44;;;7.16;44.85
37856;BME280;23694;43.274;26.924;2023-03-14T07:44:03;99058.41;;;6.98;45.30
37856;BME280;23694;43.274;26.924;2023-03-14T07:46:29;99054.22;;;7.12;45.15
37856;BME280;23694;43.274;26.924;2023-03-14T07:48:55;99054.81;;;6.84;45.34
37856;BME280;23694;43.274;26.924;2023-03-14T07:51:21;99053.88;;;7.35;44.37
37856;BME280;23694;43.274;26.924;2023-03-14T07:53:47;99044.31;;;7.67;42.79
37856;BME280;23694;43.274;26.924;2023-03-14T07:56:13;99047.41;;;7.42;42.34
37856;BME280;23694;43.274;26.924;2023-03-14T07:58:39;99037.56;;;6.98;42.87
37856;BME280;23694;43.274;26.924;2023-03-14T08:01:07;99035.38;;;7.40;41.35
37856;BME280;23694;43.274;26.924;2023-03-14T08:03:33;99026.63;;;7.25;40.14
37856;BME280;23694;43.274;26.924;2023-03-14T08:05:59;99021.91;;;7.16;39.43
37856;BME280;23694;43.274;26.924;2023-03-14T08:08:25;99035.13;;;7.76;37.30
37856;BME280;23694;43.274;26.924;2023-03-14T08:10:51;99033.38;;;8.08;36.52
37856;BME280;23694;43.274;26.924;2023-03-14T08:13:18;99010.16;;;8.03;35.78
37856;BME280;23694;43.274;26.924;2023-03-14T08:15:47;99033.19;;;7.79;34.62
37856;BME280;23694;43.274;26.924;2023-03-14T08:18:14;99014.38;;;8.36;33.99
37856;BME280;23694;43.274;26.924;2023-03-14T08:20:40;99014.44;;;8.50;35.44
37856;BME280;23694;43.274;26.924;2023-03-14T08:23:06;99010.47;;;8.73;33.30
37856;BME280;23694;43.274;26.924;2023-03-14T08:25:32;99004.13;;;8.91;32.68
37856;BME280;23694;43.274;26.924;2023-03-14T08:27:58;99005.25;;;9.01;32.06
37856;BME280;23694;43.274;26.924;2023-03-14T08:30:25;99013.09;;;9.01;30.81
37856;BME280;23694;43.274;26.924;2023-03-14T08:32:51;99014.19;;;8.69;31.20
37856;BME280;23694;43.274;26.924;2023-03-14T08:35:17;99014.22;;;9.26;29.68
37856;BME280;23694;43.274;26.924;2023-03-14T08:37:43;99015.53;;;9.04;29.66
37856;BME280;23694;43.274;26.924;2023-03-14T08:40:10;99012.25;;;8.72;30.20
37856;BME280;23694;43.274;26.924;2023-03-14T08:42:38;99013.22;;;9.14;31.15
37856;BME280;23694;43.274;26.924;2023-03-14T08:45:06;99005.25;;;8.87;31.10
37856;BME280;23694;43.274;26.924;2023-03-14T08:47:33;98996.19;;;9.35;31.28
37856;BME280;23694;43.274;26.924;2023-03-14T08:49:59;98997.78;;;9.38;29.75
37856;BME280;23694;43.274;26.924;2023-03-14T08:52:25;98980.28;;;9.94;29.06
37856;BME280;23694;43.274;26.924;2023-03-14T08:54:51;98980.69;;;10.27;28.60
37856;BME280;23694;43.274;26.924;2023-03-14T08:57:17;98973.63;;;9.61;27.72
37856;BME280;23694;43.274;26.924;2023-03-14T08:59:43;98967.25;;;9.79;28.51
37856;BME280;23694;43.274;26.924;2023-03-14T09:02:11;98965.84;;;9.47;29.37
37856;BME280;23694;43.274;26.924;2023-03-14T09:04:37;98966.53;;;9.63;29.45
37856;BME280;23694;43.274;26.924;2023-03-14T09:07:03;98962.13;;;9.64;28.87
37856;BME280;23694;43.274;26.924;2023-03-14T09:09:30;98953.91;;;9.97;28.28
37856;BME280;23694;43.274;26.924;2023-03-14T09:11:56;98953.94;;;10.09;27.80
37856;BME280;23694;43.274;26.924;2023-03-14T09:14:24;98964.16;;;10.00;27.78
37856;BME280;23694;43.274;26.924;2023-03-14T09:16:50;98959.03;;;9.98;27.88
37856;BME280;23694;43.274;26.924;2023-03-14T09:19:16;98946.22;;;10.21;27.87
37856;BME280;23694;43.274;26.924;2023-03-14T09:21:42;98956.13;;;10.68;27.35
37856;BME280;23694;43.274;26.924;2023-03-14T09:24:08;98943.34;;;10.76;27.51
37856;BME280;23694;43.274;26.924;2023-03-14T09:26:34;98939.75;;;11.15;27.08
37856;BME280;23694;43.274;26.924;2023-03-14T09:29:00;98947.56;;;10.66;26.68
37856;BME280;23694;43.274;26.924;2023-03-14T09:31:26;98932.47;;;10.69;26.58
37856;BME280;23694;43.274;26.924;2023-03-14T09:33:53;98935.28;;;10.66;26.28
37856;BME280;23694;43.274;26.924;2023-03-14T09:36:19;98934.78;;;10.48;26.32
37856;BME280;23694;43.274;26.924;2023-03-14T09:38:45;98918.28;;;10.85;26.29
37856;BME280;23694;43.274;26.924;2023-03-14T09:41:27;98914.81;;;10.97;26.08
37856;BME280;23694;43.274;26.924;2023-03-14T09:44:06;98908.69;;;11.22;25.07
37856;BME280;23694;43.274;26.924;2023-03-14T09:46:36;98902.44;;;11.11;25.40
37856;BME280;23694;43.274;26.924;2023-03-14T09:49:11;98902.06;;;11.29;24.92
37856;BME280;23694;43.274;26.924;2023-03-14T09:51:38;98897.38;;;11.21;22.82
37856;BME280;23694;43.274;26.924;2023-03-14T09:54:05;98895.59;;;11.46;23.57
37856;BME280;23694;43.274;26.924;2023-03-14T09:56:32;98885.66;;;11.62;23.78
37856;BME280;23694;43.274;26.924;2023-03-14T09:59:00;98885.31;;;12.25;23.30
37856;BME280;23694;43.274;26.924;2023-03-14T10:01:31;98883.00;;;11.74;24.34
37856;BME280;23694;43.274;26.924;2023-03-14T10:04:01;98887.81;;;11.81;23.50
37856;BME280;23694;43.274;26.924;2023-03-14T10:06:30;98874.50;;;11.71;22.89
37856;BME280;23694;43.274;26.924;2023-03-14T10:08:56;98860.56;;;11.70;22.53
37856;BME280;23694;43.274;26.924;2023-03-14T10:11:24;98870.41;;;11.80;23.78
37856;BME280;23694;43.274;26.924;2023-03-14T10:16:37;98859.88;;;12.15;23.33
37856;BME280;23694;43.274;26.924;2023-03-14T10:19:10;98849.91;;;11.85;23.62
37856;BME280;23694;43.274;26.924;2023-03-14T10:21:41;98851.72;;;11.95;23.94
37856;BME280;23694;43.274;26.924;2023-03-14T10:24:32;98848.22;;;12.41;23.63
37856;BME280;23694;43.274;26.924;2023-03-14T10:27:04;98846.72;;;12.03;24.02
37856;BME280;23694;43.274;26.924;2023-03-14T10:29:32;98832.81;;;11.55;24.98
37856;BME280;23694;43.274;26.924;2023-03-14T10:34:37;98816.28;;;12.01;24.75
37856;BME280;23694;43.274;26.924;2023-03-14T10:39:46;98822.50;;;12.11;24.41
37856;BME280;23694;43.274;26.924;2023-03-14T10:42:21;98821.09;;;11.72;24.72
37856;BME280;23694;43.274;26.924;2023-03-14T10:44:53;98810.69;;;12.17;24.35
37856;BME280;23694;43.274;26.924;2023-03-14T10:47:22;98785.91;;;12.43;23.66
37856;BME280;23694;43.274;26.924;2023-03-14T10:49:49;98796.75;;;12.50;24.09
37856;BME280;23694;43.274;26.924;2023-03-14T10:52:24;98790.38;;;11.85;23.96
37856;BME280;23694;43.274;26.924;2023-03-14T10:54:58;98788.59;;;11.86;24.14
37856;BME280;23694;43.274;26.924;2023-03-14T10:57:25;98790.88;;;12.24;23.24
37856;BME280;23694;43.274;26.924;2023-03-14T10:59:52;98778.13;;;12.30;23.22
37856;BME280;23694;43.274;26.924;2023-03-14T11:02:44;98767.72;;;12.18;22.94
37856;BME280;23694;43.274;26.924;2023-03-14T11:10:48;98751.38;;;12.25;21.58
37856;BME280;23694;43.274;26.924;2023-03-14T11:13:20;98746.38;;;12.33;21.41
37856;BME280;23694;43.274;26.924;2023-03-14T11:16:14;98729.28;;;12.28;22.50
37856;BME280;23694;43.274;26.924;2023-03-14T11:18:54;98718.91;;;12.49;22.14
37856;BME280;23694;43.274;26.924;2023-03-14T11:24:08;98716.88;;;12.95;22.19
37856;BME280;23694;43.274;26.924;2023-03-14T11:29:40;98696.06;;;13.04;21.61
37856;BME280;23694;43.274;26.924;2023-03-14T11:32:12;98689.53;;;12.55;21.10
37856;BME280;23694;43.274;26.924;2023-03-14T11:35:08;98691.22;;;12.88;21.61
37856;BME280;23694;43.274;26.924;2023-03-14T11:37:45;98695.50;;;12.57;20.31
37856;BME280;23694;43.274;26.924;2023-03-14T11:40:21;98685.56;;;12.92;20.54
37856;BME280;23694;43.274;26.924;2023-03-14T11:43:20;98671.75;;;12.79;21.18
37856;BME280;23694;43.274;26.924;2023-03-14T11:45:56;98652.66;;;12.77;20.89
37856;BME280;23694;43.274;26.924;2023-03-14T11:48:50;98657.34;;;13.06;20.34
37856;BME280;23694;43.274;26.924;2023-03-14T11:51:29;98660.34;;;12.69;21.12
37856;BME280;23694;43.274;26.924;2023-03-14T11:54:14;98647.34;;;12.88;21.34
37856;BME280;23694;43.274;26.924;2023-03-14T11:59:21;98640.75;;;13.47;21.54
37856;BME280;23694;43.274;26.924;2023-03-14T12:01:53;98623.97;;;13.17;21.35
37856;BME280;23694;43.274;26.924;2023-03-14T12:07:18;98619.19;;;13.32;21.42
37856;BME280;23694;43.274;26.924;2023-03-14T12:09:46;98631.38;;;13.12;22.19
37856;BME280;23694;43.274;26.924;2023-03-14T12:12:19;98611.41;;;13.10;22.09
37856;BME280;23694;43.274;26.924;2023-03-14T12:14:55;98612.09;;;13.23;22.30
37856;BME280;23694;43.274;26.924;2023-03-14T12:17:26;98613.09;;;13.31;22.35
37856;BME280;23694;43.274;26.924;2023-03-14T12:20:17;98592.81;;;13.43;21.50
37856;BME280;23694;43.274;26.924;2023-03-14T12:22:48;98593.22;;;13.69;21.50
37856;BME280;23694;43.274;26.924;2023-03-14T12:25:30;98580.88;;;13.39;21.28
37856;BME280;23694;43.274;26.924;2023-03-14T12:30:42;98580.25;;;13.56;20.45
37856;BME280;23694;43.274;26.924;2023-03-14T12:38:09;98567.72;;;13.39;20.70
37856;BME280;23694;43.274;26.924;2023-03-14T12:40:40;98562.63;;;13.78;20.29
37856;BME280;23694;43.274;26.924;2023-03-14T12:43:40;98555.84;;;13.45;19.95
37856;BME280;23694;43.274;26.924;2023-03-14T12:46:22;98567.72;;;13.39;19.74
37856;BME280;23694;43.274;26.924;2023-03-14T12:48:49;98549.69;;;13.65;19.66
37856;BME280;23694;43.274;26.924;2023-03-14T12:51:19;98543.56;;;13.24;19.67
37856;BME280;23694;43.274;26.924;2023-03-14T12:59:51;98532.47;;;13.51;19.63
37856;BME280;23694;43.274;26.924;2023-03-14T13:02:22;98534.63;;;13.67;18.73
37856;BME280;23694;43.274;26.924;2023-03-14T13:04:53;98536.69;;;13.33;18.76
37856;BME280;23694;43.274;26.924;2023-03-14T13:10:18;98532.19;;;13.85;18.64
37856;BME280;23694;43.274;26.924;2023-03-14T13:12:54;98526.47;;;13.70;18.69
37856;BME280;23694;43.274;26.924;2023-03-14T13:15:32;98526.63;;;13.78;18.75
37856;BME280;23694;43.274;26.924;2023-03-14T13:20:38;98527.59;;;13.77;18.45
37856;BME280;23694;43.274;26.924;2023-03-14T13:23:20;98517.16;;;13.66;18.28
37856;BME280;23694;43.274;26.924;2023-03-14T13:25:46;98514.97;;;13.71;18.34
37856;BME280;23694;43.274;26.924;2023-03-14T13:28:14;98510.25;;;13.75;18.57
37856;BME280;23694;43.274;26.924;2023-03-14T13:30:42;98490.66;;;13.58;18.80
37856;BME280;23694;43.274;26.924;2023-03-14T13:33:17;98490.47;;;13.80;18.97
37856;BME280;23694;43.274;26.924;2023-03-14T13:36:01;98497.81;;;13.77;18.80
37856;BME280;23694;43.274;26.924;2023-03-14T13:38:35;98472.06;;;14.00;18.44
37856;BME280;23694;43.274;26.924;2023-03-14T13:41:06;98479.97;;;13.40;19.32
37856;BME280;23694;43.274;26.924;2023-03-14T13:43:36;98471.28;;;13.59;19.23
37856;BME280;23694;43.274;26.924;2023-03-14T13:46:07;98464.59;;;13.45;19.01
37856;BME280;23694;43.274;26.924;2023-03-14T13:49:03;98463.94;;;13.62;18.75
37856;BME280;23694;43.274;26.924;2023-03-14T13:51:31;98455.66;;;13.17;19.12
37856;BME280;23694;43.274;26.924;2023-03-14T13:54:01;98441.16;;;13.32;18.85
37856;BME280;23694;43.274;26.924;2023-03-14T13:56:31;98443.03;;;13.61;18.82